Time;durP1;ratioP1;P1;durP2;ratioP2;P2;SDS_P1;SDS_P2;PMS_P1;PMS_P2;Temp;Humidity;BMP_temperature;BMP_pressure;BME280_temperature;BME280_humidity;BME280_pressure;Samples;Min_cycle;Max_cycle;Signal;HPM_P1;HPM_P2
2022/01/02 00:01:00;;;;;;;24.50;15.20;;;;;;;8.11;78.13;95968.41;5063711;28;20037;-82
2022/01/02 00:03:29;;;;;;;26.77;14.52;;;;;;;7.70;78.07;95893.75;5065393;28;20065;-82
2022/01/02 00:06:01;;;;;;;22.88;15.38;;;;;;;8.14;77.86;95957.38;5046867;28;20440;-82
2022/01/02 00:08:30;;;;;;;;;;;;;;;8.37;77.60;95980.25;5063158;28;20036;-83
2022/01/02 00:10:59;;;;;;;25.13;14.65;;;;;;;7.79;77.56;95896.00;5047523;28;20359;-83
2022/01/02 00:13:31;;;;;;;21.10;14.07;;;;;;;7.74;77.64;95894.91;5046064;28;20033;-83
2022/01/02 00:16:03;;;;;;;22.33;14.88;;;;;;;7.85;78.09;95901.16;5062449;28;20523;-83
2022/01/02 00:18:31;;;;;;;21.70;13.82;;;;;;;8.21;77.70;95944.81;5062967;28;20024;-83
2022/01/02 00:20:59;;;;;;;21.85;14.45;;;;;;;8.52;77.51;95986.59;5046681;28;20025;-83
2022/01/02 00:23:30;;;;;;;21.95;13.80;;;;;;;8.55;77.15;95997.69;5062709;28;20094;-84
2022/01/02 00:26:04;;;;;;;26.30;15.23;;;;;;;7.74;76.97;95867.69;5047664;28;20115;-84
2022/01/02 00:28:32;;;;;;;22.27;14.52;;;;;;;8.61;77.04;95986.19;5047724;28;20033;-84
2022/01/02 00:30:58;;;;;;;22.40;14.25;;;;;;;7.89;76.90;95872.44;5045846;28;20044;-83
2022/01/02 00:33:25;;;;;;;24.27;15.13;;;;;;;8.17;77.42;95938.38;5047816;28;20052;-83
2022/01/02 00:35:51;;;;;;;21.83;14.82;;;;;;;8.56;77.07;95986.09;5063281;28;20064;-83
2022/01/02 00:38:20;;;;;;;25.95;14.32;;;;;;;7.72;77.37;95867.13;5062538;28;20087;-84
2022/01/02 00:40:52;;;;;;;24.75;14.85;;;;;;;7.97;77.49;95940.69;5062407;28;20451;-82
2022/01/02 00:43:48;;;;;;;24.23;15.40;;;;;;;8.53;77.39;95990.03;5062475;28;20029;-83
2022/01/02 00:46:14;;;;;;;22.33;14.13;;;;;;;5.86;77.12;95576.13;5052136;28;20040;-83
2022/01/02 00:48:44;;;;;;;26.20;15.65;;;;;;;8.30;77.34;95940.75;5047038;28;20388;-83
2022/01/02 00:51:17;;;;;;;22.65;13.70;;;;;;;8.53;77.57;95984.75;5046936;28;20037;-83
2022/01/02 00:53:46;;;;;;;23.98;14.48;;;;;;;8.22;77.62;95950.91;5047015;28;20072;-83
2022/01/02 00:56:14;;;;;;;24.27;14.82;;;;;;;7.94;77.97;95893.63;5044839;28;20404;-83
2022/01/02 00:58:48;;;;;;;20.98;13.75;;;;;;;7.10;77.46;95753.63;5061900;28;20029;-83
2022/01/02 01:01:17;;;;;;;24.05;14.00;;;;;;;8.63;77.07;96000.75;5062166;28;20061;-83
2022/01/02 01:03:45;;;;;;;26.65;14.30;;;;;;;8.13;77.20;95910.88;5045579;28;20533;-83
2022/01/02 01:06:11;;;;;;;20.50;13.60;;;;;;;8.51;77.28;95960.38;5061900;28;20047;-83
2022/01/02 01:08:40;;;;;;;20.88;13.82;;;;;;;8.80;76.64;95983.03;5062271;28;20140;-83
2022/01/02 01:11:11;;;;;;;25.42;14.82;;;;;;;7.22;76.23;95750.94;5045022;28;20060;-83
2022/01/02 01:13:36;;;;;;;22.27;14.30;;;;;;;8.55;76.38;95964.13;5045201;28;20468;-83
2022/01/02 01:16:03;;;;;;;28.27;14.68;;;;;;;8.39;75.66;95915.53;5045486;28;20192;-83
2022/01/02 01:18:29;;;;;;;19.45;12.38;;;;;;;7.89;76.07;95865.31;5045132;28;20036;-83
2022/01/02 01:20:54;;;;;;;23.48;14.45;;;;;;;8.23;76.14;95913.69;5046795;28;20025;-84
2022/01/02 01:23:21;;;;;;;22.77;14.20;;;;;;;8.86;75.57;95989.19;5061616;28;20239;-83
2022/01/02 01:25:49;;;;;;;19.95;13.32;;;;;;;7.81;75.69;95847.22;5045331;28;20037;-83
2022/01/02 01:28:16;;;;;;;20.73;13.10;;;;;;;7.90;75.66;95843.13;5061657;28;20033;-83
2022/01/02 01:30:43;;;;;;;19.33;13.68;;;;;;;8.31;75.84;95925.72;5046043;28;20056;-83
2022/01/02 01:33:09;;;;;;;17.77;12.77;;;;;;;8.16;75.71;95906.94;5061562;28;20099;-83
2022/01/02 01:35:35;;;;;;;20.60;13.13;;;;;;;7.85;75.56;95845.72;5044440;28;20045;-83
2022/01/02 01:40:40;;;;;;;24.25;13.50;;;;;;;4.58;75.02;95342.41;5116010;22;20064;-85
2022/01/02 01:43:06;;;;;;;18.00;12.73;;;;;;;8.42;75.55;95964.47;5032707;28;20033;-84
2022/01/02 01:45:32;;;;;;;17.90;12.07;;;;;;;8.63;75.44;95965.56;5029968;28;20052;-84
2022/01/02 01:48:04;;;;;;;19.00;12.85;;;;;;;8.36;74.72;95920.50;5047020;28;20462;-84
2022/01/02 01:50:40;;;;;;;22.80;13.13;;;;;;;8.26;75.48;95931.69;5029699;28;20095;-85
2022/01/02 01:53:16;;;;;;;17.03;10.90;;;;;;;8.50;75.43;95972.81;3031977;28;10002082;-84
2022/01/02 01:55:42;;;;;;;19.13;12.43;;;;;;;7.85;75.41;95856.28;2600643;28;10001981;-84
2022/01/02 01:58:07;;;;;;;23.45;12.30;;;;;;;7.86;75.75;95875.56;5046267;28;20044;-84
2022/01/02 02:00:34;;;;;;;21.20;13.05;;;;;;;8.17;75.69;95922.53;5045795;28;20036;-84
2022/01/02 02:03:00;;;;;;;18.52;12.30;;;;;;;7.63;75.45;95829.75;5031507;28;20098;-84
2022/01/02 02:05:26;;;;;;;18.00;12.27;;;;;;;8.11;75.32;95895.25;5046401;28;20118;-84
2022/01/02 02:07:51;;;;;;;19.98;11.75;;;;;;;7.85;75.86;95868.69;5045661;28;20124;-84
2022/01/02 02:10:25;;;;;;;18.70;10.57;;;;;;;8.73;75.47;95981.59;5045874;28;20539;-84
2022/01/02 02:12:53;;;;;;;19.17;11.35;;;;;;;8.60;75.26;95963.44;5045784;28;20458;-85
2022/01/02 02:15:21;;;;;;;17.02;11.15;;;;;;;8.83;75.09;95968.53;5032304;28;20037;-84
2022/01/02 02:17:48;;;;;;;17.33;11.57;;;;;;;7.14;74.64;95767.16;5049415;28;20053;-84
2022/01/02 02:20:15;;;;;;;15.45;11.07;;;;;;;8.76;75.22;95970.56;5035451;28;20037;-84
2022/01/02 02:22:43;;;;;;;17.15;11.18;;;;;;;8.75;75.09;95976.88;5033817;28;20133;-84
2022/01/02 02:25:15;;;;;;;15.60;11.00;;;;;;;7.95;75.27;95856.41;5030566;28;20045;-85
2022/01/02 02:27:57;;;;;;;16.73;11.07;;;;;;;8.16;75.31;95906.94;5032339;28;20037;-84
2022/01/02 02:30:24;;;;;;;17.88;11.25;;;;;;;7.82;75.00;95846.19;5053119;28;20037;-84
2022/01/02 02:32:51;;;;;;;16.27;10.80;;;;;;;8.39;75.23;95918.16;5174681;23;20077;-80
2022/01/02 02:35:19;;;;;;;17.85;11.75;;;;;;;8.61;75.49;95952.63;5035888;28;20097;-80
2022/01/02 02:37:45;;;;;;;19.60;11.73;;;;;;;8.13;75.47;95897.66;5033597;28;20036;-79
2022/01/02 02:40:13;;;;;;;15.88;11.73;;;;;;;8.29;75.23;95906.63;5033095;28;20068;-80
2022/01/02 02:51:03;;;;;;;17.42;11.63;;;;;;;8.20;75.16;95884.28;5034331;28;20418;-79
2022/01/02 02:53:29;;;;;;;19.38;12.57;;;;;;;7.94;75.83;95860.09;5032217;28;20107;-80
2022/01/02 02:55:57;;;;;;;19.05;13.05;;;;;;;8.61;75.67;95980.91;5034251;28;20503;-79
2022/01/02 03:00:55;;;;;;;19.17;12.13;;;;;;;8.62;75.80;95978.00;5034259;28;20033;-79
2022/01/02 03:03:21;;;;;;;18.05;12.05;;;;;;;8.73;75.79;95992.19;5034523;28;20470;-79
2022/01/02 03:05:46;;;;;;;20.52;12.50;;;;;;;8.30;76.04;95929.38;5032611;28;20125;-79
2022/01/02 03:08:12;;;;;;;22.00;11.60;;;;;;;7.81;75.78;95851.69;5034562;28;20503;-79
2022/01/02 03:10:37;;;;;;;18.80;12.15;;;;;;;8.70;75.88;96001.38;5034513;28;20039;-79
2022/01/02 03:13:03;;;;;;;20.23;13.55;;;;;;;8.70;76.16;96014.59;5031717;28;20042;-80
2022/01/02 03:15:28;;;;;;;21.83;12.68;;;;;;;8.66;76.75;96004.75;5032134;28;20037;-80
2022/01/02 03:17:54;;;;;;;17.25;11.90;;;;;;;8.21;76.63;95963.31;5031919;28;20387;-79
2022/01/02 03:20:19;;;;;;;19.25;12.45;;;;;;;8.36;76.29;95960.94;5033911;28;20483;-79
2022/01/02 03:22:45;;;;;;;20.02;13.63;;;;;;;8.53;76.49;95992.69;5048604;28;20040;-79
2022/01/02 03:25:13;;;;;;;18.52;11.65;;;;;;;8.15;76.07;95927.28;5032464;28;20025;-79
2022/01/02 03:27:40;;;;;;;22.15;12.65;;;;;;;8.67;76.66;96003.72;5031442;28;20033;-79
2022/01/02 03:30:06;;;;;;;21.77;13.38;;;;;;;8.34;76.62;95965.66;5031364;28;20083;-79
2022/01/02 03:32:32;;;;;;;18.25;11.35;;;;;;;8.38;75.74;95958.06;5032616;28;20045;-79
2022/01/02 03:34:57;;;;;;;15.68;10.68;;;;;;;8.75;75.85;96011.25;5031999;28;20428;-80
2022/01/02 03:37:25;;;;;;;20.40;13.02;;;;;;;8.81;75.23;96015.56;5031940;28;20091;-79
2022/01/02 03:39:50;;;;;;;21.85;13.27;;;;;;;8.03;75.66;95894.84;5031804;28;20123;-79
2022/01/02 03:42:16;;;;;;;19.35;12.38;;;;;;;7.58;75.64;95840.22;5032829;28;20033;-79
2022/01/02 03:44:41;;;;;;;15.32;10.68;;;;;;;8.65;75.98;96008.44;5033211;28;20029;-80
2022/01/02 03:47:07;;;;;;;17.38;10.85;;;;;;;8.38;75.99;95958.88;5048041;28;20029;-79
2022/01/02 03:49:32;;;;;;;17.33;12.20;;;;;;;7.83;75.64;95871.56;5031366;28;20067;-80
2022/01/02 03:52:01;;;;;;;21.45;11.20;;;;;;;7.59;75.60;95831.28;1415496;28;10022720;-79
2022/01/02 03:54:27;;;;;;;17.30;12.00;;;;;;;8.30;75.79;95940.75;3991100;28;10001501;-79
2022/01/02 03:56:54;;;;;;;22.98;11.90;;;;;;;7.87;75.89;95871.84;5032743;28;20044;-79
2022/01/02 03:59:19;;;;;;;16.15;11.20;;;;;;;8.10;75.89;95911.31;5031287;28;20512;-79
2022/01/02 04:01:45;;;;;;;14.43;10.65;;;;;;;8.22;75.76;95937.69;5031879;28;20070;-79
2022/01/02 04:04:11;;;;;;;16.45;11.48;;;;;;;8.37;75.75;95962.56;5033078;28;20119;-80
2022/01/02 04:06:36;;;;;;;17.70;10.88;;;;;;;8.44;75.96;95970.31;5032011;28;20037;-79
2022/01/02 04:09:02;;;;;;;21.40;11.63;;;;;;;8.64;75.89;96007.66;5033814;28;20506;-79
2022/01/02 04:11:28;;;;;;;15.85;10.52;;;;;;;7.85;75.81;95897.72;5033841;28;20125;-80
2022/01/02 04:13:53;;;;;;;19.60;11.20;;;;;;;8.65;75.39;96030.41;5033820;28;20093;-79
2022/01/02 04:16:18;;;;;;;17.10;10.85;;;;;;;8.39;75.78;96005.38;5033056;28;20029;-79
2022/01/02 04:18:44;;;;;;;18.45;10.45;;;;;;;8.58;75.73;96042.19;5033418;28;20447;-79
2022/01/02 04:21:09;;;;;;;17.75;11.15;;;;;;;7.49;76.04;95865.41;5033095;28;20598;-79
2022/01/02 04:23:37;;;;;;;16.73;11.10;;;;;;;8.24;76.42;95988.47;5033179;28;20065;-79
2022/01/02 04:26:02;;;;;;;19.58;12.10;;;;;;;8.33;76.69;96000.25;5031768;28;20037;-80
2022/01/02 04:28:28;;;;;;;16.23;11.48;;;;;;;8.04;76.32;95959.84;5049069;28;20029;-80
2022/01/02 04:30:53;;;;;;;16.20;11.32;;;;;;;8.30;76.23;95995.44;5038827;28;20064;-79
2022/01/02 04:33:19;;;;;;;17.77;11.05;;;;;;;8.42;76.33;96030.53;5033406;28;20534;-80
2022/01/02 04:35:44;;;;;;;20.10;11.35;;;;;;;8.52;76.99;96046.59;5033569;28;20112;-79
2022/01/02 04:38:10;;;;;;;17.45;11.90;;;;;;;8.06;76.62;95971.78;5033231;28;20041;-79
2022/01/02 04:40:35;;;;;;;27.27;11.88;;;;;;;8.35;76.84;96017.50;5048265;28;20072;-79
2022/01/02 04:43:00;;;;;;;17.98;11.20;;;;;;;8.22;76.57;95993.19;5033236;28;20095;-80
2022/01/02 04:45:26;;;;;;;19.45;11.75;;;;;;;8.04;77.00;95965.13;5032189;28;20049;-79
2022/01/02 04:47:52;;;;;;;19.52;11.90;;;;;;;8.35;77.33;96043.13;5033152;28;20057;-79
2022/01/02 04:50:17;;;;;;;18.65;12.18;;;;;;;8.12;77.60;95999.88;5031833;28;20045;-79
2022/01/02 04:52:43;;;;;;;20.40;12.27;;;;;;;7.53;77.05;95913.25;5030973;28;20097;-79
2022/01/02 04:55:09;;;;;;;20.52;12.95;;;;;;;8.40;77.01;96043.19;5030984;28;20061;-80
2022/01/02 04:57:34;;;;;;;20.95;11.73;;;;;;;7.96;77.28;95968.94;5033165;28;20033;-79
2022/01/02 05:00:00;;;;;;;18.08;11.38;;;;;;;8.26;77.05;96010.94;5032170;28;20045;-79
2022/01/02 05:02:25;;;;;;;18.98;11.63;;;;;;;7.97;76.66;95967.91;5033864;28;20021;-79
2022/01/02 05:04:51;;;;;;;22.00;12.35;;;;;;;8.22;77.05;96017.75;5031739;28;20068;-79
2022/01/02 05:07:16;;;;;;;19.75;11.68;;;;;;;7.95;77.28;95982.38;5048713;28;20037;-79
2022/01/02 05:09:42;;;;;;;18.02;11.73;;;;;;;7.89;77.14;95980.69;5035570;28;20033;-80
2022/01/02 05:12:07;;;;;;;18.85;12.27;;;;;;;7.88;77.08;95982.53;5036564;28;20026;-80
2022/01/02 05:14:33;;;;;;;17.52;11.70;;;;;;;7.48;77.17;95905.22;5036272;28;20037;-79
2022/01/02 05:16:58;;;;;;;20.98;12.85;;;;;;;8.32;76.96;96030.38;5037700;28;20033;-79
2022/01/02 05:19:24;;;;;;;18.52;12.55;;;;;;;8.10;77.31;96015.16;5038506;28;20132;-79
2022/01/02 05:21:49;;;;;;;22.95;13.27;;;;;;;7.88;77.18;95979.09;5038839;28;20048;-80
2022/01/02 05:24:15;;;;;;;19.27;11.60;;;;;;;8.37;77.08;96054.25;5035852;28;20092;-79
2022/01/02 05:26:40;;;;;;;23.02;13.18;;;;;;;7.66;76.87;95936.72;5037281;28;20037;-79
2022/01/02 05:29:06;;;;;;;17.83;12.05;;;;;;;7.88;77.16;95987.81;5036784;28;20040;-80
2022/01/02 05:31:31;;;;;;;19.80;12.63;;;;;;;8.05;76.81;95998.44;5036455;28;20480;-80
2022/01/02 05:33:57;;;;;;;19.92;12.93;;;;;;;8.45;76.30;96053.88;5034530;28;20585;-80
2022/01/02 05:36:24;;;;;;;19.08;11.52;;;;;;;7.92;76.87;95986.31;5034583;28;20025;-79
2022/01/02 05:38:50;;;;;;;21.10;11.43;;;;;;;7.80;77.15;95967.06;5036336;28;20041;-79
2022/01/02 05:41:16;;;;;;;19.25;12.50;;;;;;;8.21;76.73;96033.84;5036135;28;20036;-79
2022/01/02 05:43:41;;;;;;;19.73;12.40;;;;;;;7.75;77.03;95978.34;5034631;28;20037;-80
2022/01/02 05:46:07;;;;;;;18.70;12.35;;;;;;;8.02;77.41;96020.03;5033785;28;20091;-80
2022/01/02 05:48:34;;;;;;;21.30;12.75;;;;;;;8.32;77.26;96065.53;5034312;28;20033;-79
2022/01/02 05:51:00;;;;;;;18.13;12.40;;;;;;;8.36;76.93;96065.88;4933262;28;20711;-79
2022/01/02 05:53:26;;;;;;;20.20;11.52;;;;;;;8.10;76.88;96027.56;345031;28;10022892;-80
2022/01/02 05:55:52;;;;;;;18.33;12.05;;;;;;;7.59;76.87;95946.63;5035606;28;20108;-79
2022/01/02 05:58:18;;;;;;;18.98;12.55;;;;;;;7.67;76.80;95952.34;5033838;28;20064;-79
2022/01/02 06:00:43;;;;;;;20.05;12.40;;;;;;;8.23;77.07;96031.78;5034117;28;20037;-79
2022/01/02 06:03:09;;;;;;;25.25;13.60;;;;;;;8.02;77.20;96014.75;5035425;28;20048;-79
2022/01/02 06:05:34;;;;;;;24.48;12.07;;;;;;;7.90;77.20;96004.25;5034913;28;20038;-79
2022/01/02 06:07:59;;;;;;;22.02;13.05;;;;;;;8.35;76.97;96067.72;5034919;28;20087;-79
2022/01/02 06:10:25;;;;;;;18.35;11.57;;;;;;;8.31;77.05;96077.16;5035374;28;20044;-80
2022/01/02 06:12:51;;;;;;;17.02;11.43;;;;;;;8.09;77.46;96053.19;5034903;28;20468;-79
2022/01/02 06:15:16;;;;;;;16.10;10.43;;;;;;;8.27;77.49;96073.34;5034972;28;20182;-79
2022/01/02 06:17:42;;;;;;;15.10;10.80;;;;;;;7.79;77.28;96001.63;5034880;28;20052;-79
2022/01/02 06:20:07;;;;;;;19.83;11.88;;;;;;;7.61;77.35;95970.94;5034162;28;20517;-79
2022/01/02 06:22:33;;;;;;;16.92;11.40;;;;;;;7.64;77.64;96002.94;5033035;28;20120;-80
2022/01/02 06:24:58;;;;;;;15.95;11.15;;;;;;;7.80;77.57;96024.38;5033032;28;20444;-80
2022/01/02 06:27:24;;;;;;;15.80;10.88;;;;;;;8.25;77.29;96088.63;5033484;28;20104;-79
2022/01/02 06:29:49;;;;;;;15.82;10.57;;;;;;;7.65;77.46;95991.34;5032670;28;20049;-79
2022/01/02 06:32:15;;;;;;;15.52;9.40;;;;;;;7.82;76.90;96023.09;5032634;28;20482;-80
2022/01/02 06:34:40;;;;;;;15.27;10.32;;;;;;;7.76;76.94;96000.28;5034839;28;20061;-80
2022/01/02 06:37:06;;;;;;;14.13;9.23;;;;;;;8.31;77.11;96098.31;5032570;28;20107;-79
2022/01/02 06:39:32;;;;;;;15.48;10.35;;;;;;;7.90;76.77;96038.56;5050287;28;20037;-80
2022/01/02 06:41:57;;;;;;;15.45;9.80;;;;;;;7.75;76.50;96020.59;5034594;28;20065;-80
2022/01/02 06:44:23;;;;;;;16.98;10.95;;;;;;;7.88;76.15;96011.59;5033794;28;20048;-80
2022/01/02 06:46:48;;;;;;;17.13;10.32;;;;;;;7.93;76.69;96022.28;5034267;28;20037;-79
2022/01/02 06:49:13;;;;;;;15.85;9.70;;;;;;;8.20;76.06;96074.53;5034098;28;20034;-79
2022/01/02 06:51:39;;;;;;;13.57;9.65;;;;;;;8.03;75.96;96064.69;5049505;28;20037;-80
2022/01/02 06:54:04;;;;;;;19.15;10.35;;;;;;;7.59;75.94;95973.81;5032357;28;20400;-79
2022/01/02 06:56:30;;;;;;;17.48;10.75;;;;;;;8.22;75.81;96083.81;5032710;28;20044;-79
2022/01/02 06:58:55;;;;;;;17.60;10.35;;;;;;;7.50;76.23;95963.88;5033699;28;20041;-80
2022/01/02 07:01:21;;;;;;;15.95;10.13;;;;;;;8.07;75.45;96052.66;5033320;28;20029;-79
2022/01/02 07:03:46;;;;;;;16.23;9.75;;;;;;;8.37;76.08;96088.63;5032322;28;20034;-79
2022/01/02 07:06:11;;;;;;;16.95;9.98;;;;;;;8.25;75.87;96072.75;5033814;28;20057;-79
2022/01/02 07:08:38;;;;;;;18.50;10.77;;;;;;;8.55;75.63;96122.75;5031831;28;20029;-79
2022/01/02 07:11:05;;;;;;;15.93;10.38;;;;;;;8.44;76.25;96121.81;5033245;28;20037;-79
2022/01/02 07:13:31;;;;;;;16.00;10.07;;;;;;;8.39;76.10;96113.75;5033168;28;20037;-79
2022/01/02 07:15:56;;;;;;;14.43;9.50;;;;;;;8.34;75.56;96087.25;5033376;28;20470;-79
2022/01/02 07:18:22;;;;;;;18.65;10.07;;;;;;;8.47;76.29;96123.16;5033971;28;20050;-79
2022/01/02 07:20:47;;;;;;;14.85;10.10;;;;;;;8.30;75.58;96085.28;5032153;28;20033;-79
2022/01/02 07:23:12;;;;;;;19.70;10.70;;;;;;;8.36;76.09;96132.75;5032175;28;20037;-79
2022/01/02 07:25:38;;;;;;;18.35;10.43;;;;;;;8.44;76.10;96111.22;5032203;28;20099;-79
2022/01/02 07:28:03;;;;;;;15.88;10.45;;;;;;;8.13;75.99;96077.31;5033649;28;20033;-79
2022/01/02 07:30:29;;;;;;;17.48;10.57;;;;;;;8.34;76.01;96100.47;5033904;28;20039;-79
2022/01/02 07:33:01;;;;;;;18.52;10.02;;;;;;;7.59;75.63;95976.47;5032146;28;20063;-79
2022/01/02 07:35:27;;;;;;;17.27;10.98;;;;;;;8.12;75.75;96068.59;5033158;28;20041;-79
2022/01/02 07:37:52;;;;;;;17.27;11.50;;;;;;;8.60;75.38;96127.34;5048475;28;20523;-80
2022/01/02 07:40:18;;;;;;;15.13;9.85;;;;;;;8.19;75.53;96076.38;5048171;28;20549;-79
2022/01/02 07:42:43;;;;;;;16.92;9.93;;;;;;;8.10;75.70;96067.19;5032928;28;20053;-79
2022/01/02 07:45:09;;;;;;;15.70;9.35;;;;;;;8.11;75.69;96074.09;5033163;28;20037;-79
2022/01/02 07:47:34;;;;;;;17.00;9.77;;;;;;;8.12;76.00;96071.22;5048252;28;20094;-79
2022/01/02 07:50:04;;;;;;;15.77;9.90;;;;;;;8.12;75.72;96073.88;4730846;28;10001088;-79
2022/01/02 07:52:30;;;;;;;17.33;10.25;;;;;;;8.23;75.29;96071.41;692044;28;10002036;-79
2022/01/02 07:54:55;;;;;;;13.77;9.48;;;;;;;7.84;75.02;96010.47;5032508;28;20037;-79
2022/01/02 07:57:21;;;;;;;13.43;8.90;;;;;;;7.81;74.77;95994.28;5033274;28;20034;-79
2022/01/02 07:59:47;;;;;;;16.77;9.50;;;;;;;8.50;74.92;96115.56;5032046;28;20480;-80
2022/01/02 08:02:12;;;;;;;13.40;9.38;;;;;;;8.11;74.76;96069.63;5034049;28;20032;-80
2022/01/02 08:04:38;;;;;;;12.98;8.50;;;;;;;8.52;74.80;96110.03;5033082;28;20348;-79
2022/01/02 08:07:04;;;;;;;16.45;9.48;;;;;;;8.09;74.61;96053.19;5033116;28;20033;-79
2022/01/02 08:09:29;;;;;;;14.15;10.00;;;;;;;8.61;74.64;96144.84;5031457;28;20060;-79
2022/01/02 08:11:54;;;;;;;15.93;10.02;;;;;;;8.28;74.70;96071.50;5032640;28;20076;-79
2022/01/02 08:14:21;;;;;;;19.45;10.35;;;;;;;8.24;74.26;96079.09;5033769;28;20066;-79
2022/01/02 08:16:47;;;;;;;16.33;9.27;;;;;;;8.49;74.25;96113.94;5032472;28;20064;-79
2022/01/02 08:19:13;;;;;;;13.82;9.13;;;;;;;8.19;74.55;96060.50;5032974;28;20033;-79
2022/01/02 08:21:39;;;;;;;21.20;10.93;;;;;;;8.63;74.07;96129.50;5047709;28;20590;-79
2022/01/02 08:24:05;;;;;;;16.92;10.95;;;;;;;8.81;74.32;96142.53;5034188;28;20045;-79
2022/01/02 08:26:31;;;;;;;18.13;9.98;;;;;;;8.59;73.48;96099.31;5033364;28;20116;-80
2022/01/02 08:29:00;;;;;;;16.40;10.27;;;;;;;8.37;73.36;96078.84;5030933;28;20515;-79
2022/01/02 08:31:30;;;;;;;19.05;9.25;;;;;;;8.89;73.61;96134.22;5033222;28;20093;-79
2022/01/02 08:33:55;;;;;;;18.05;9.32;;;;;;;8.90;73.40;96144.56;5047197;28;20053;-79
2022/01/02 08:36:21;;;;;;;14.50;9.80;;;;;;;8.41;73.12;96050.09;5047216;28;20413;-79
2022/01/02 08:38:47;;;;;;;13.10;8.68;;;;;;;8.52;73.32;96087.06;5032515;28;20372;-79
2022/01/02 08:41:14;;;;;;;14.75;9.02;;;;;;;9.03;72.92;96138.16;5032458;28;20033;-80
2022/01/02 08:43:40;;;;;;;14.82;7.68;;;;;;;8.40;72.27;96035.25;5032569;28;20140;-79
2022/01/02 08:46:06;;;;;;;12.88;8.52;;;;;;;8.43;72.78;96051.47;5047925;28;20041;-80
2022/01/02 08:48:32;;;;;;;12.70;8.52;;;;;;;8.70;72.48;96085.19;5048144;28;20091;-79
2022/01/02 08:50:57;;;;;;;11.75;7.88;;;;;;;8.86;72.33;96098.44;5030822;28;20030;-79
2022/01/02 08:53:23;;;;;;;18.60;8.40;;;;;;;8.31;71.71;95997.88;5032337;28;20029;-79
2022/01/02 08:55:48;;;;;;;13.75;8.13;;;;;;;8.96;71.35;96097.81;5048183;28;20049;-80
2022/01/02 08:58:14;;;;;;;13.98;8.30;;;;;;;9.27;71.57;96141.44;5031881;28;20472;-79
2022/01/02 09:00:39;;;;;;;12.85;7.53;;;;;;;8.67;71.27;96059.25;5031635;28;20068;-80
2022/01/02 09:03:06;;;;;;;14.32;8.48;;;;;;;8.76;71.65;96060.47;5047397;28;20033;-79
2022/01/02 09:05:32;;;;;;;12.48;8.18;;;;;;;8.58;70.89;96019.19;5047374;28;20048;-79
2022/01/02 09:07:58;;;;;;;13.25;7.85;;;;;;;8.67;70.62;96036.25;5047451;28;20432;-79
2022/01/02 09:10:23;;;;;;;13.75;8.43;;;;;;;8.58;70.59;95984.81;5032282;28;20115;-80
2022/01/02 09:12:49;;;;;;;10.65;6.88;;;;;;;9.18;69.82;96084.66;5032979;28;20041;-80
2022/01/02 09:15:16;;;;;;;14.23;8.65;;;;;;;8.54;69.91;95973.13;5033020;28;20033;-79
2022/01/02 09:17:41;;;;;;;13.73;8.10;;;;;;;9.37;70.13;96111.69;5032443;28;20037;-79
2022/01/02 09:20:08;;;;;;;15.27;8.38;;;;;;;9.56;70.02;96131.53;5032705;28;20044;-80
2022/01/02 09:22:34;;;;;;;16.67;8.15;;;;;;;8.99;69.46;96019.81;5033329;28;20120;-79
2022/01/02 09:25:00;;;;;;;11.90;7.30;;;;;;;8.65;69.52;96000.50;5030658;28;20040;-79
2022/01/02 09:27:25;;;;;;;12.07;7.78;;;;;;;9.02;69.51;96041.28;5032974;28;20033;-79
2022/01/02 09:29:51;;;;;;;12.15;7.50;;;;;;;8.96;69.80;96030.88;5032155;28;20472;-80
2022/01/02 09:32:17;;;;;;;10.02;7.25;;;;;;;9.29;69.52;96058.09;5031058;28;20045;-79
2022/01/02 09:34:42;;;;;;;12.43;7.40;;;;;;;9.26;69.07;96033.94;5047929;28;20506;-79
2022/01/02 09:37:08;;;;;;;16.98;7.97;;;;;;;9.73;68.06;96092.56;5032671;28;20037;-79
2022/01/02 09:39:33;;;;;;;11.80;7.47;;;;;;;9.58;67.93;96068.53;5031033;28;20060;-79
2022/01/02 09:41:59;;;;;;;11.30;7.65;;;;;;;9.37;68.03;96035.72;5032626;28;20033;-79
2022/01/02 09:44:25;;;;;;;8.50;6.65;;;;;;;9.47;67.78;96064.94;5031233;28;20141;-80
2022/01/02 09:46:53;;;;;;;10.35;7.13;;;;;;;8.94;68.20;95996.72;5033085;28;20041;-79
2022/01/02 09:49:21;;;;;;;12.73;7.82;;;;;;;9.12;68.15;96012.34;5032592;28;20033;-80
2022/01/02 09:52:00;;;;;;;10.70;5.72;;;;;;;9.01;68.09;95973.53;2805675;28;10002554;-79
2022/01/02 09:54:26;;;;;;;9.90;6.55;;;;;;;9.24;67.97;95997.13;2957163;28;10001215;-79
2022/01/02 09:56:51;;;;;;;12.38;7.82;;;;;;;9.40;67.95;96015.88;5051545;28;20032;-79
2022/01/02 09:59:17;;;;;;;12.95;7.43;;;;;;;9.66;68.32;96055.69;5038436;28;20124;-79
2022/01/02 10:01:43;;;;;;;9.98;6.80;;;;;;;9.21;67.78;95984.41;5036583;28;20025;-79
2022/01/02 10:04:09;;;;;;;10.60;7.15;;;;;;;9.28;67.97;95987.69;5034785;28;20041;-79
2022/01/02 10:06:48;;;;;;;9.48;6.00;;;;;;;9.78;67.53;96057.38;5036275;28;20045;-79
2022/01/02 10:09:36;;;;;;;11.65;7.68;;;;;;;9.82;67.31;96061.16;5051281;28;20057;-79
2022/01/02 10:12:25;;;;;;;9.13;6.00;;;;;;;9.83;67.11;96054.81;5037496;28;20107;-80
2022/01/02 10:15:06;;;;;;;9.32;5.95;;;;;;;9.85;66.11;96058.81;5037499;28;20049;-79
2022/01/02 10:17:56;;;;;;;7.80;5.03;;;;;;;9.93;66.01;96053.06;5037524;28;20426;-79
2022/01/02 10:20:34;;;;;;;9.63;5.55;;;;;;;10.03;66.04;96047.09;5037502;28;20034;-80
2022/01/02 10:23:06;;;;;;;9.05;5.40;;;;;;;10.56;63.72;96056.13;5036970;28;20036;-80
2022/01/02 10:25:37;;;;;;;;;;;;;;;11.20;62.46;96041.78;5038821;28;20029;-80
2022/01/02 10:28:21;;;;;;;11.40;5.35;;;;;;;11.61;60.74;96048.13;5051986;28;19921;-80
2022/01/02 10:30:48;;;;;;;10.73;5.95;;;;;;;11.84;59.65;95991.09;5037307;28;20033;-80
2022/01/02 10:33:14;;;;;;;9.07;5.03;;;;;;;12.02;57.64;95981.84;5036927;28;20107;-80
2022/01/02 10:35:43;;;;;;;6.65;4.38;;;;;;;12.35;57.51;96031.13;5034709;28;20496;-80
2022/01/02 10:38:16;;;;;;;8.27;4.43;;;;;;;12.43;56.75;96027.94;5034959;28;20137;-80
2022/01/02 10:40:42;;;;;;;8.57;4.53;;;;;;;11.69;56.68;95921.94;5037049;28;20349;-80
2022/01/02 10:43:23;;;;;;;6.10;4.15;;;;;;;12.21;57.05;96006.88;5035624;28;20037;-80
2022/01/02 10:45:53;;;;;;;7.93;5.32;;;;;;;12.38;56.54;95974.72;5035694;28;20404;-79
2022/01/02 10:48:38;;;;;;;11.77;5.22;;;;;;;12.53;56.63;96008.53;5036629;28;20140;-79
2022/01/02 10:51:09;;;;;;;6.50;4.50;;;;;;;12.47;56.05;95957.19;5036276;28;20037;-80
2022/01/02 10:53:38;;;;;;;7.13;4.30;;;;;;;12.83;56.00;95997.06;5052801;28;20028;-80
2022/01/02 10:56:05;;;;;;;8.00;4.28;;;;;;;12.87;55.32;96008.81;5035507;28;20124;-80
2022/01/02 10:58:33;;;;;;;9.85;4.28;;;;;;;12.76;54.93;95928.16;5035551;28;20030;-80
2022/01/02 11:01:06;;;;;;;11.73;4.20;;;;;;;13.35;54.33;96007.44;5037190;28;20527;-80
2022/01/02 11:03:33;;;;;;;5.80;4.30;;;;;;;12.77;55.57;96007.72;5035376;28;20052;-80
2022/01/02 11:06:06;;;;;;;11.02;4.13;;;;;;;12.44;56.02;95936.41;5036035;28;20110;-81
2022/01/02 11:08:34;;;;;;;7.32;3.20;;;;;;;12.79;54.59;95959.56;5052635;28;20068;-80
2022/01/02 11:11:01;;;;;;;6.85;4.22;;;;;;;12.77;55.17;95982.97;5037248;28;20037;-80
2022/01/02 11:13:26;;;;;;;5.80;3.78;;;;;;;12.64;55.56;95991.50;5038037;28;20099;-80
2022/01/02 11:15:53;;;;;;;4.65;3.17;;;;;;;12.16;56.11;95944.91;5018889;28;20046;-80
2022/01/02 11:18:19;;;;;;;4.97;3.60;;;;;;;11.86;56.39;95887.19;5015978;28;20125;-79
2022/01/02 11:20:45;;;;;;;7.72;3.70;;;;;;;12.57;56.47;95977.66;5014562;28;20057;-80
2022/01/02 11:23:30;;;;;;;11.85;4.30;;;;;;;12.62;56.61;95969.69;5014159;28;20034;-79
2022/01/02 11:26:49;;;;;;;5.28;3.65;;;;;;;12.70;56.35;95969.94;5014931;28;20121;-80
2022/01/02 11:29:15;;;;;;;7.70;3.95;;;;;;;12.35;56.52;95938.03;4919445;29;20039;-79
2022/01/02 11:31:43;;;;;;;5.68;3.78;;;;;;;12.24;57.21;95961.16;5009350;28;20099;-79
2022/01/02 11:34:28;;;;;;;7.15;3.80;;;;;;;12.33;57.18;95962.22;5013636;28;20046;-80
2022/01/02 11:37:12;;;;;;;8.27;3.45;;;;;;;12.28;56.92;95967.53;5013692;28;20034;-80
2022/01/02 11:39:53;;;;;;;5.65;3.60;;;;;;;12.38;56.84;95962.22;5014542;28;20034;-79
2022/01/02 11:42:45;;;;;;;5.22;3.30;;;;;;;12.40;56.69;95964.63;5013424;28;20527;-79